KBGRKBHB

Guest
Details From KBGR - Bangor Intl
To KBHB - Hancock Co Bar Harbor
Flight Number -
Tags Decoded
Created
Modified
Stats Distance 30 nm / 56 km
Max Altitude 0 ft / 0 m
Waypoints 2
Social Downloads 1
Likes 0
Share VATSIM

Download

Looking for another format? Having issues loading an existing format? Contact us
Advertisement - Login to hide

Notes

Decoded

Route

KBGR KBHB

ID Type Via Altitude Latitude Longitude Leg Dist Tot Dist Heading (true) Name
O KBGR APT - 0 ft / 0 m 44.81837˚ -68.84393˚ - 0 nm - -
O KBHB APT - 0 ft / 0 m 44.45267˚ -68.36220˚ 30 nm 30 nm 137° / 137° Hancock Co Bar Harbor

Altitude Profile

Advertisement - Login to hide

KBGR

Details ICAO KBGR (BGR)
Name BANGOR INTL
Region United States
Timezone America/New_York (UTC-5.0)
Stats Elevation 192 ft / 59 m (AMSL)
Location 44.807437° -68.828126°
Runways 1
Magnetic Variation 16.154° W

METAR

KBGR 121809Z 02010KT 1/2SM R15/4000V6000FT -SN BR VV016 M07/M09 A2974 RMK AO2 SFC VIS 3/4 P0000 T10721094

Decode

TAF

KBGR 121739Z 1218/1318 36010KT 3/4SM -SN BR OVC010 FM130000 03010KT 1SM -FZRASNPL BR OVC004 WS020/17040KT FM130200 15010KT 1SM -RA BR OVC004 WS020/17040KT FM130600 24010KT 1SM -RA BR OVC004 FM131500 26010KT 1SM -SN BR OVC006

Decode

Departure Runways

ID Width Length Bearing (true) Bearing (mag) Surface Threshold Offset Overrun Length
15 200 ft / 61 m 11,430 ft / 3,484 m 134.27° 150.42° Asphalt 0 ft / 0 m 1,000 ft / 305 m
33 200 ft / 61 m 11,430 ft / 3,484 m 314.29° 330.44° Asphalt 0 ft / 0 m 1,000 ft / 305 m

KBHB

Details ICAO KBHB (BHB)
Name Hancock Co Bar Harbor
Region United States
Timezone America/New_York (UTC-5.0)
Stats Elevation 83 ft / 25 m (AMSL)
Location 44.449530° -68.361037°
Runways 2
Magnetic Variation 16.196° W

METAR

KBHB 121756Z AUTO 01008KT 9SM -SN BKN038 OVC047 M02/M03 A2973 RMK AO2 PRESFR SLP072 6//// T10221033 11022 21072 58046 FZRANO PNO $

Decode

TAF

TAF KBHB 121739Z 1218/1318 06010KT 3SM -SN BR SCT015 OVC035 TEMPO 1218/1220 2SM -RASN BR OVC015 FM122000 15010KT 2SM -RA BR BKN008 OVC015 FM130000 13015G25KT 2SM -RA BR OVC004 WS020/17040KT FM130600 18012G20KT 2SM -RA BR OVC004 FM131500 26012KT 2SM -SN BR OVC008

Decode

Destination Runways

ID Width Length Bearing (true) Bearing (mag) Surface Threshold Offset Overrun Length
04 98 ft / 30 m 5,205 ft / 1,586 m 24.54° 40.74° Asphalt 0 ft / 0 m 0 ft / 0 m
17 75 ft / 23 m 3,356 ft / 1,023 m 149.60° 165.80° Asphalt 682 ft / 208 m 0 ft / 0 m
22 98 ft / 30 m 5,205 ft / 1,586 m 204.55° 220.75° Asphalt 0 ft / 0 m 0 ft / 0 m
35 75 ft / 23 m 3,356 ft / 1,023 m 329.60° 345.80° Asphalt 112 ft / 34 m 0 ft / 0 m

Approach Navaids

Runway Type Ident Frequency Range Bearing (true) Bearing (mag) Slope Elevation
22 Localiser IBHB 108.30 MHz 18 nm / 33 km 204.56° 220.76° - 62 ft / 19 m (AMSL)
22 Glidescope IBHB 108.30 MHz 10 nm / 19 km 204.54° 220.74° 3.00° 72 ft / 22 m (AMSL)
22 DME IBHB 108.30 MHz 18 nm / 33 km - - - 76 ft / 23 m (AMSL)

Popular Alternatives